sensor_id;sensor_type;location;lat;lon;timestamp;P1;durP1;ratioP1;P2;durP2;ratioP2
28086;SDS011;15392;48.912;8.380;2022-08-18T00:00:29;0.68;;;0.68;;
28086;SDS011;15392;48.912;8.380;2022-08-18T00:03:00;5.13;;;0.93;;
28086;SDS011;15392;48.912;8.380;2022-08-18T00:05:33;0.93;;;0.93;;
28086;SDS011;15392;48.912;8.380;2022-08-18T00:07:59;1.20;;;1.10;;
28086;SDS011;15392;48.912;8.380;2022-08-18T00:10:25;0.90;;;0.90;;
28086;SDS011;15392;48.912;8.380;2022-08-18T00:12:51;0.80;;;0.80;;
28086;SDS011;15392;48.912;8.380;2022-08-18T00:15:17;0.80;;;0.80;;
28086;SDS011;15392;48.912;8.380;2022-08-18T00:17:44;0.90;;;0.90;;
28086;SDS011;15392;48.912;8.380;2022-08-18T00:20:12;0.90;;;0.90;;
28086;SDS011;15392;48.912;8.380;2022-08-18T00:22:42;0.90;;;0.90;;
28086;SDS011;15392;48.912;8.380;2022-08-18T00:25:10;0.80;;;0.80;;
28086;SDS011;15392;48.912;8.380;2022-08-18T00:27:39;0.90;;;0.90;;
28086;SDS011;15392;48.912;8.380;2022-08-18T00:30:06;0.90;;;0.90;;
28086;SDS011;15392;48.912;8.380;2022-08-18T00:32:37;0.88;;;0.88;;
28086;SDS011;15392;48.912;8.380;2022-08-18T00:35:08;0.90;;;0.90;;
28086;SDS011;15392;48.912;8.380;2022-08-18T00:37:42;0.70;;;0.70;;
28086;SDS011;15392;48.912;8.380;2022-08-18T00:40:09;0.80;;;0.80;;
28086;SDS011;15392;48.912;8.380;2022-08-18T00:42:51;0.80;;;0.80;;
28086;SDS011;15392;48.912;8.380;2022-08-18T00:45:28;1.20;;;0.90;;
28086;SDS011;15392;48.912;8.380;2022-08-18T00:47:58;0.90;;;0.90;;
28086;SDS011;15392;48.912;8.380;2022-08-18T00:50:28;0.80;;;0.80;;
28086;SDS011;15392;48.912;8.380;2022-08-18T00:53:26;0.80;;;0.80;;
28086;SDS011;15392;48.912;8.380;2022-08-18T00:56:07;0.90;;;0.90;;
28086;SDS011;15392;48.912;8.380;2022-08-18T00:58:46;0.80;;;0.80;;
28086;SDS011;15392;48.912;8.380;2022-08-18T01:01:24;0.90;;;0.90;;
28086;SDS011;15392;48.912;8.380;2022-08-18T01:03:55;0.80;;;0.80;;
28086;SDS011;15392;48.912;8.380;2022-08-18T01:09:05;1.08;;;1.08;;
28086;SDS011;15392;48.912;8.380;2022-08-18T01:11:32;0.75;;;0.75;;
28086;SDS011;15392;48.912;8.380;2022-08-18T01:14:01;0.80;;;0.80;;
28086;SDS011;15392;48.912;8.380;2022-08-18T01:16:30;0.90;;;0.90;;
28086;SDS011;15392;48.912;8.380;2022-08-18T01:19:14;0.65;;;0.65;;
28086;SDS011;15392;48.912;8.380;2022-08-18T01:22:04;0.82;;;0.82;;
28086;SDS011;15392;48.912;8.380;2022-08-18T01:24:57;0.90;;;0.90;;
28086;SDS011;15392;48.912;8.380;2022-08-18T01:27:43;0.80;;;0.80;;
28086;SDS011;15392;48.912;8.380;2022-08-18T01:30:10;0.60;;;0.60;;
28086;SDS011;15392;48.912;8.380;2022-08-18T01:32:40;1.73;;;0.85;;
28086;SDS011;15392;48.912;8.380;2022-08-18T01:35:10;0.75;;;0.75;;
28086;SDS011;15392;48.912;8.380;2022-08-18T01:37:39;0.50;;;0.50;;
28086;SDS011;15392;48.912;8.380;2022-08-18T01:40:07;0.80;;;0.80;;
28086;SDS011;15392;48.912;8.380;2022-08-18T01:42:36;0.65;;;0.65;;
28086;SDS011;15392;48.912;8.380;2022-08-18T01:45:04;0.70;;;0.70;;
28086;SDS011;15392;48.912;8.380;2022-08-18T01:47:32;0.50;;;0.50;;
28086;SDS011;15392;48.912;8.380;2022-08-18T01:50:00;0.68;;;0.68;;
28086;SDS011;15392;48.912;8.380;2022-08-18T01:52:26;0.55;;;0.55;;
28086;SDS011;15392;48.912;8.380;2022-08-18T01:54:53;0.77;;;0.77;;
28086;SDS011;15392;48.912;8.380;2022-08-18T01:57:21;0.80;;;0.80;;
28086;SDS011;15392;48.912;8.380;2022-08-18T01:59:48;0.60;;;0.60;;
28086;SDS011;15392;48.912;8.380;2022-08-18T02:02:18;0.70;;;0.70;;
28086;SDS011;15392;48.912;8.380;2022-08-18T02:04:50;0.70;;;0.70;;
28086;SDS011;15392;48.912;8.380;2022-08-18T02:07:19;0.70;;;0.70;;
28086;SDS011;15392;48.912;8.380;2022-08-18T02:09:45;0.70;;;0.70;;
28086;SDS011;15392;48.912;8.380;2022-08-18T02:12:12;0.70;;;0.70;;
28086;SDS011;15392;48.912;8.380;2022-08-18T02:14:38;0.80;;;0.80;;
28086;SDS011;15392;48.912;8.380;2022-08-18T02:17:05;0.82;;;0.82;;
28086;SDS011;15392;48.912;8.380;2022-08-18T02:19:36;0.70;;;0.70;;
28086;SDS011;15392;48.912;8.380;2022-08-18T02:22:08;0.75;;;0.75;;
28086;SDS011;15392;48.912;8.380;2022-08-18T02:24:37;0.75;;;0.75;;
28086;SDS011;15392;48.912;8.380;2022-08-18T02:27:04;0.90;;;0.90;;
28086;SDS011;15392;48.912;8.380;2022-08-18T02:29:31;0.80;;;0.80;;
28086;SDS011;15392;48.912;8.380;2022-08-18T02:31:58;0.90;;;0.90;;
28086;SDS011;15392;48.912;8.380;2022-08-18T02:34:23;0.90;;;0.90;;
28086;SDS011;15392;48.912;8.380;2022-08-18T02:36:49;0.70;;;0.70;;
28086;SDS011;15392;48.912;8.380;2022-08-18T02:39:16;0.90;;;0.90;;
28086;SDS011;15392;48.912;8.380;2022-08-18T02:41:42;0.77;;;0.77;;
28086;SDS011;15392;48.912;8.380;2022-08-18T02:44:08;0.75;;;0.75;;
28086;SDS011;15392;48.912;8.380;2022-08-18T02:46:35;0.88;;;0.88;;
28086;SDS011;15392;48.912;8.380;2022-08-18T02:49:02;0.98;;;0.98;;
28086;SDS011;15392;48.912;8.380;2022-08-18T02:51:31;0.80;;;0.80;;
28086;SDS011;15392;48.912;8.380;2022-08-18T02:53:57;0.95;;;0.90;;
28086;SDS011;15392;48.912;8.380;2022-08-18T02:56:24;0.82;;;0.82;;
28086;SDS011;15392;48.912;8.380;2022-08-18T02:58:55;0.90;;;0.90;;
28086;SDS011;15392;48.912;8.380;2022-08-18T03:01:23;0.95;;;0.90;;
28086;SDS011;15392;48.912;8.380;2022-08-18T03:03:55;0.82;;;0.82;;
28086;SDS011;15392;48.912;8.380;2022-08-18T03:06:23;0.80;;;0.80;;
28086;SDS011;15392;48.912;8.380;2022-08-18T03:08:51;0.80;;;0.80;;
28086;SDS011;15392;48.912;8.380;2022-08-18T03:11:20;0.80;;;0.80;;
28086;SDS011;15392;48.912;8.380;2022-08-18T03:13:51;0.93;;;0.93;;
28086;SDS011;15392;48.912;8.380;2022-08-18T03:16:18;0.90;;;0.90;;
28086;SDS011;15392;48.912;8.380;2022-08-18T03:18:45;0.65;;;0.65;;
28086;SDS011;15392;48.912;8.380;2022-08-18T03:21:17;0.90;;;0.90;;
28086;SDS011;15392;48.912;8.380;2022-08-18T03:23:47;1.00;;;1.00;;
28086;SDS011;15392;48.912;8.380;2022-08-18T03:26:15;1.08;;;1.08;;
28086;SDS011;15392;48.912;8.380;2022-08-18T03:28:43;0.80;;;0.80;;
28086;SDS011;15392;48.912;8.380;2022-08-18T03:31:12;0.90;;;0.90;;
28086;SDS011;15392;48.912;8.380;2022-08-18T03:33:40;0.90;;;0.90;;
28086;SDS011;15392;48.912;8.380;2022-08-18T03:36:07;0.95;;;0.95;;
28086;SDS011;15392;48.912;8.380;2022-08-18T03:38:38;0.80;;;0.80;;
28086;SDS011;15392;48.912;8.380;2022-08-18T03:41:06;1.00;;;1.00;;
28086;SDS011;15392;48.912;8.380;2022-08-18T03:43:38;0.90;;;0.90;;
28086;SDS011;15392;48.912;8.380;2022-08-18T03:46:05;0.65;;;0.65;;
28086;SDS011;15392;48.912;8.380;2022-08-18T03:48:38;0.82;;;0.82;;
28086;SDS011;15392;48.912;8.380;2022-08-18T03:51:06;0.80;;;0.80;;
28086;SDS011;15392;48.912;8.380;2022-08-18T03:53:36;0.70;;;0.70;;
28086;SDS011;15392;48.912;8.380;2022-08-18T03:56:06;0.85;;;0.85;;
28086;SDS011;15392;48.912;8.380;2022-08-18T03:58:39;0.90;;;0.90;;
28086;SDS011;15392;48.912;8.380;2022-08-18T04:01:11;0.90;;;0.90;;
28086;SDS011;15392;48.912;8.380;2022-08-18T04:03:40;0.80;;;0.80;;
28086;SDS011;15392;48.912;8.380;2022-08-18T04:06:07;0.93;;;0.93;;
28086;SDS011;15392;48.912;8.380;2022-08-18T04:08:40;0.88;;;0.88;;
28086;SDS011;15392;48.912;8.380;2022-08-18T04:11:06;0.82;;;0.82;;
28086;SDS011;15392;48.912;8.380;2022-08-18T04:13:31;0.90;;;0.90;;
28086;SDS011;15392;48.912;8.380;2022-08-18T04:16:00;0.85;;;0.85;;
28086;SDS011;15392;48.912;8.380;2022-08-18T04:18:26;0.80;;;0.80;;
28086;SDS011;15392;48.912;8.380;2022-08-18T04:20:52;0.90;;;0.90;;
28086;SDS011;15392;48.912;8.380;2022-08-18T04:23:18;0.80;;;0.80;;
28086;SDS011;15392;48.912;8.380;2022-08-18T04:25:45;0.80;;;0.80;;
28086;SDS011;15392;48.912;8.380;2022-08-18T04:28:19;0.70;;;0.70;;
28086;SDS011;15392;48.912;8.380;2022-08-18T04:30:45;0.80;;;0.80;;
28086;SDS011;15392;48.912;8.380;2022-08-18T04:33:11;1.10;;;1.10;;
28086;SDS011;15392;48.912;8.380;2022-08-18T04:35:37;1.30;;;0.80;;
28086;SDS011;15392;48.912;8.380;2022-08-18T04:38:02;0.90;;;0.90;;
28086;SDS011;15392;48.912;8.380;2022-08-18T04:40:28;0.73;;;0.73;;
28086;SDS011;15392;48.912;8.380;2022-08-18T04:42:57;0.80;;;0.80;;
28086;SDS011;15392;48.912;8.380;2022-08-18T04:45:22;1.17;;;1.17;;
28086;SDS011;15392;48.912;8.380;2022-08-18T04:47:48;1.10;;;1.10;;
28086;SDS011;15392;48.912;8.380;2022-08-18T04:50:15;1.10;;;1.10;;
28086;SDS011;15392;48.912;8.380;2022-08-18T04:52:41;0.88;;;0.88;;
28086;SDS011;15392;48.912;8.380;2022-08-18T04:55:26;0.90;;;0.90;;
28086;SDS011;15392;48.912;8.380;2022-08-18T04:57:53;0.80;;;0.80;;
28086;SDS011;15392;48.912;8.380;2022-08-18T05:00:20;0.70;;;0.70;;
28086;SDS011;15392;48.912;8.380;2022-08-18T05:02:46;0.73;;;0.73;;
28086;SDS011;15392;48.912;8.380;2022-08-18T05:05:12;0.77;;;0.77;;
28086;SDS011;15392;48.912;8.380;2022-08-18T05:07:42;0.80;;;0.80;;
28086;SDS011;15392;48.912;8.380;2022-08-18T05:10:10;1.00;;;1.00;;
28086;SDS011;15392;48.912;8.380;2022-08-18T05:12:37;0.80;;;0.80;;
28086;SDS011;15392;48.912;8.380;2022-08-18T05:15:06;0.93;;;0.93;;
28086;SDS011;15392;48.912;8.380;2022-08-18T05:17:35;1.10;;;1.00;;
28086;SDS011;15392;48.912;8.380;2022-08-18T05:20:04;0.80;;;0.80;;
28086;SDS011;15392;48.912;8.380;2022-08-18T05:22:39;0.75;;;0.75;;
28086;SDS011;15392;48.912;8.380;2022-08-18T05:25:07;0.80;;;0.80;;
28086;SDS011;15392;48.912;8.380;2022-08-18T05:27:35;0.70;;;0.70;;
28086;SDS011;15392;48.912;8.380;2022-08-18T05:30:05;0.70;;;0.70;;
28086;SDS011;15392;48.912;8.380;2022-08-18T05:32:33;0.65;;;0.65;;
28086;SDS011;15392;48.912;8.380;2022-08-18T05:35:10;0.80;;;0.80;;
28086;SDS011;15392;48.912;8.380;2022-08-18T05:40:28;0.60;;;0.60;;
28086;SDS011;15392;48.912;8.380;2022-08-18T05:42:55;0.80;;;0.80;;
28086;SDS011;15392;48.912;8.380;2022-08-18T05:45:23;0.80;;;0.80;;
28086;SDS011;15392;48.912;8.380;2022-08-18T05:47:51;0.98;;;0.98;;
28086;SDS011;15392;48.912;8.380;2022-08-18T05:50:23;0.80;;;0.80;;
28086;SDS011;15392;48.912;8.380;2022-08-18T05:58:24;1.10;;;1.10;;
28086;SDS011;15392;48.912;8.380;2022-08-18T06:00:57;0.93;;;0.93;;
28086;SDS011;15392;48.912;8.380;2022-08-18T06:06:00;0.80;;;0.80;;
28086;SDS011;15392;48.912;8.380;2022-08-18T06:08:51;0.80;;;0.80;;
28086;SDS011;15392;48.912;8.380;2022-08-18T06:11:34;0.90;;;0.90;;
28086;SDS011;15392;48.912;8.380;2022-08-18T06:14:00;0.80;;;0.80;;
28086;SDS011;15392;48.912;8.380;2022-08-18T06:19:38;0.65;;;0.65;;
28086;SDS011;15392;48.912;8.380;2022-08-18T06:22:31;0.90;;;0.90;;
28086;SDS011;15392;48.912;8.380;2022-08-18T06:25:47;0.82;;;0.82;;
28086;SDS011;15392;48.912;8.380;2022-08-18T06:29:18;0.80;;;0.80;;
28086;SDS011;15392;48.912;8.380;2022-08-18T06:40:22;0.80;;;0.80;;
28086;SDS011;15392;48.912;8.380;2022-08-18T06:42:48;1.00;;;1.00;;
28086;SDS011;15392;48.912;8.380;2022-08-18T06:45:14;0.90;;;0.90;;
28086;SDS011;15392;48.912;8.380;2022-08-18T06:47:48;0.68;;;0.68;;
28086;SDS011;15392;48.912;8.380;2022-08-18T06:50:39;0.90;;;0.90;;
28086;SDS011;15392;48.912;8.380;2022-08-18T06:53:11;0.93;;;0.93;;
28086;SDS011;15392;48.912;8.380;2022-08-18T07:08:33;1.00;;;1.00;;
28086;SDS011;15392;48.912;8.380;2022-08-18T07:14:43;1.00;;;1.00;;
28086;SDS011;15392;48.912;8.380;2022-08-18T07:16:47;0.90;;;0.90;;
28086;SDS011;15392;48.912;8.380;2022-08-18T07:19:17;0.90;;;0.90;;
28086;SDS011;15392;48.912;8.380;2022-08-18T07:21:45;0.82;;;0.82;;
28086;SDS011;15392;48.912;8.380;2022-08-18T07:24:30;1.00;;;1.00;;
28086;SDS011;15392;48.912;8.380;2022-08-18T07:30:24;1.08;;;1.08;;
28086;SDS011;15392;48.912;8.380;2022-08-18T07:32:33;1.00;;;1.00;;
28086;SDS011;15392;48.912;8.380;2022-08-18T07:35:05;0.85;;;0.85;;
28086;SDS011;15392;48.912;8.380;2022-08-18T07:43:00;0.90;;;0.90;;
28086;SDS011;15392;48.912;8.380;2022-08-18T07:45:45;0.80;;;0.80;;
28086;SDS011;15392;48.912;8.380;2022-08-18T08:02:20;0.88;;;0.88;;
28086;SDS011;15392;48.912;8.380;2022-08-18T08:10:57;1.50;;;0.70;;
28086;SDS011;15392;48.912;8.380;2022-08-18T08:16:35;0.70;;;0.70;;
28086;SDS011;15392;48.912;8.380;2022-08-18T08:22:03;0.82;;;0.82;;
28086;SDS011;15392;48.912;8.380;2022-08-18T08:31:09;0.80;;;0.80;;
28086;SDS011;15392;48.912;8.380;2022-08-18T08:34:13;0.70;;;0.70;;
28086;SDS011;15392;48.912;8.380;2022-08-18T08:36:52;0.82;;;0.82;;
28086;SDS011;15392;48.912;8.380;2022-08-18T08:39:30;1.00;;;1.00;;
28086;SDS011;15392;48.912;8.380;2022-08-18T08:42:18;0.80;;;0.80;;
28086;SDS011;15392;48.912;8.380;2022-08-18T08:45:08;0.80;;;0.80;;
28086;SDS011;15392;48.912;8.380;2022-08-18T08:47:41;0.80;;;0.80;;
28086;SDS011;15392;48.912;8.380;2022-08-18T08:56:49;0.80;;;0.80;;
28086;SDS011;15392;48.912;8.380;2022-08-18T08:59:23;0.85;;;0.85;;
28086;SDS011;15392;48.912;8.380;2022-08-18T09:23:11;1.13;;;1.13;;
28086;SDS011;15392;48.912;8.380;2022-08-18T09:25:45;1.08;;;1.08;;
28086;SDS011;15392;48.912;8.380;2022-08-18T09:28:20;1.00;;;1.00;;
28086;SDS011;15392;48.912;8.380;2022-08-18T09:31:20;1.13;;;1.13;;
28086;SDS011;15392;48.912;8.380;2022-08-18T09:33:50;1.20;;;1.20;;
28086;SDS011;15392;48.912;8.380;2022-08-18T09:39:10;1.20;;;1.20;;
28086;SDS011;15392;48.912;8.380;2022-08-18T09:42:40;1.40;;;1.33;;
28086;SDS011;15392;48.912;8.380;2022-08-18T09:45:53;1.30;;;1.30;;
28086;SDS011;15392;48.912;8.380;2022-08-18T09:48:26;1.60;;;1.50;;
28086;SDS011;15392;48.912;8.380;2022-08-18T09:51:55;1.40;;;1.40;;
28086;SDS011;15392;48.912;8.380;2022-08-18T09:54:06;1.35;;;1.35;;
28086;SDS011;15392;48.912;8.380;2022-08-18T10:07:49;1.50;;;1.50;;
28086;SDS011;15392;48.912;8.380;2022-08-18T10:13:49;1.35;;;1.35;;
28086;SDS011;15392;48.912;8.380;2022-08-18T10:16:49;1.45;;;1.45;;
28086;SDS011;15392;48.912;8.380;2022-08-18T10:22:33;1.77;;;1.67;;
28086;SDS011;15392;48.912;8.380;2022-08-18T10:25:05;1.63;;;1.63;;
28086;SDS011;15392;48.912;8.380;2022-08-18T10:32:58;1.60;;;1.60;;
28086;SDS011;15392;48.912;8.380;2022-08-18T10:36:12;1.60;;;1.55;;
28086;SDS011;15392;48.912;8.380;2022-08-18T10:38:44;1.65;;;1.65;;
28086;SDS011;15392;48.912;8.380;2022-08-18T10:41:24;1.50;;;1.50;;
28086;SDS011;15392;48.912;8.380;2022-08-18T10:43:54;1.50;;;1.50;;
28086;SDS011;15392;48.912;8.380;2022-08-18T10:46:22;1.60;;;1.60;;
28086;SDS011;15392;48.912;8.380;2022-08-18T10:49:15;1.70;;;1.70;;
28086;SDS011;15392;48.912;8.380;2022-08-18T11:00:07;2.65;;;2.50;;
28086;SDS011;15392;48.912;8.380;2022-08-18T11:05:33;2.25;;;2.15;;
28086;SDS011;15392;48.912;8.380;2022-08-18T11:08:00;2.35;;;2.25;;
28086;SDS011;15392;48.912;8.380;2022-08-18T11:13:31;2.50;;;2.40;;
28086;SDS011;15392;48.912;8.380;2022-08-18T11:16:33;1.92;;;1.92;;
28086;SDS011;15392;48.912;8.380;2022-08-18T11:19:24;2.30;;;2.20;;
28086;SDS011;15392;48.912;8.380;2022-08-18T11:21:51;2.33;;;2.22;;
28086;SDS011;15392;48.912;8.380;2022-08-18T11:24:19;2.38;;;2.28;;
28086;SDS011;15392;48.912;8.380;2022-08-18T11:26:54;2.05;;;1.98;;
28086;SDS011;15392;48.912;8.380;2022-08-18T11:32:02;2.10;;;2.10;;
28086;SDS011;15392;48.912;8.380;2022-08-18T11:34:40;2.10;;;2.00;;
28086;SDS011;15392;48.912;8.380;2022-08-18T11:40:11;2.40;;;2.30;;
28086;SDS011;15392;48.912;8.380;2022-08-18T11:42:53;2.10;;;2.05;;
28086;SDS011;15392;48.912;8.380;2022-08-18T11:58:46;2.30;;;2.20;;
28086;SDS011;15392;48.912;8.380;2022-08-18T12:01:35;2.20;;;2.10;;
28086;SDS011;15392;48.912;8.380;2022-08-18T12:09:17;2.30;;;2.20;;
28086;SDS011;15392;48.912;8.380;2022-08-18T12:12:00;2.35;;;2.25;;
28086;SDS011;15392;48.912;8.380;2022-08-18T12:14:33;2.35;;;2.25;;
28086;SDS011;15392;48.912;8.380;2022-08-18T12:17:28;2.13;;;2.03;;
28086;SDS011;15392;48.912;8.380;2022-08-18T12:19:55;1.80;;;1.80;;
28086;SDS011;15392;48.912;8.380;2022-08-18T12:22:23;1.83;;;1.83;;
28086;SDS011;15392;48.912;8.380;2022-08-18T12:24:54;2.75;;;2.03;;
28086;SDS011;15392;48.912;8.380;2022-08-18T12:27:20;2.35;;;2.25;;
28086;SDS011;15392;48.912;8.380;2022-08-18T12:29:49;2.28;;;2.17;;
28086;SDS011;15392;48.912;8.380;2022-08-18T12:32:17;2.30;;;2.10;;
28086;SDS011;15392;48.912;8.380;2022-08-18T12:34:46;2.28;;;2.17;;
28086;SDS011;15392;48.912;8.380;2022-08-18T12:37:14;2.50;;;2.40;;
28086;SDS011;15392;48.912;8.380;2022-08-18T12:39:43;2.40;;;2.30;;
28086;SDS011;15392;48.912;8.380;2022-08-18T12:42:10;2.35;;;2.25;;
28086;SDS011;15392;48.912;8.380;2022-08-18T12:44:37;2.15;;;2.05;;
28086;SDS011;15392;48.912;8.380;2022-08-18T12:47:04;2.50;;;2.40;;
28086;SDS011;15392;48.912;8.380;2022-08-18T12:49:36;3.90;;;2.38;;
28086;SDS011;15392;48.912;8.380;2022-08-18T12:52:01;2.40;;;2.30;;
28086;SDS011;15392;48.912;8.380;2022-08-18T12:54:27;2.40;;;2.30;;
28086;SDS011;15392;48.912;8.380;2022-08-18T12:56:54;2.28;;;2.22;;
28086;SDS011;15392;48.912;8.380;2022-08-18T12:59:22;2.45;;;2.35;;
28086;SDS011;15392;48.912;8.380;2022-08-18T13:01:48;2.33;;;2.28;;
28086;SDS011;15392;48.912;8.380;2022-08-18T13:04:15;2.22;;;2.22;;
28086;SDS011;15392;48.912;8.380;2022-08-18T13:06:48;2.10;;;2.10;;
28086;SDS011;15392;48.912;8.380;2022-08-18T13:09:17;1.92;;;1.92;;
28086;SDS011;15392;48.912;8.380;2022-08-18T13:11:44;2.25;;;2.15;;
28086;SDS011;15392;48.912;8.380;2022-08-18T13:14:10;2.05;;;1.75;;
28086;SDS011;15392;48.912;8.380;2022-08-18T13:16:38;1.85;;;1.77;;
28086;SDS011;15392;48.912;8.380;2022-08-18T13:19:07;1.85;;;1.80;;
28086;SDS011;15392;48.912;8.380;2022-08-18T13:21:33;1.80;;;1.70;;
28086;SDS011;15392;48.912;8.380;2022-08-18T13:24:00;1.58;;;1.58;;
28086;SDS011;15392;48.912;8.380;2022-08-18T13:26:28;1.75;;;1.73;;
28086;SDS011;15392;48.912;8.380;2022-08-18T13:29:00;1.80;;;1.70;;
28086;SDS011;15392;48.912;8.380;2022-08-18T13:31:27;1.65;;;1.65;;
28086;SDS011;15392;48.912;8.380;2022-08-18T13:33:54;1.90;;;1.50;;
28086;SDS011;15392;48.912;8.380;2022-08-18T13:36:21;1.40;;;1.40;;
28086;SDS011;15392;48.912;8.380;2022-08-18T13:38:48;1.48;;;1.48;;
28086;SDS011;15392;48.912;8.380;2022-08-18T13:41:16;1.67;;;1.67;;
28086;SDS011;15392;48.912;8.380;2022-08-18T13:43:42;1.60;;;1.50;;
28086;SDS011;15392;48.912;8.380;2022-08-18T13:46:14;1.60;;;1.50;;
28086;SDS011;15392;48.912;8.380;2022-08-18T13:48:43;1.27;;;1.27;;
28086;SDS011;15392;48.912;8.380;2022-08-18T13:51:10;1.75;;;1.75;;
28086;SDS011;15392;48.912;8.380;2022-08-18T13:53:44;1.80;;;1.80;;
28086;SDS011;15392;48.912;8.380;2022-08-18T13:56:10;1.77;;;1.67;;
28086;SDS011;15392;48.912;8.380;2022-08-18T13:58:36;1.67;;;1.67;;
28086;SDS011;15392;48.912;8.380;2022-08-18T14:01:03;1.60;;;1.60;;
28086;SDS011;15392;48.912;8.380;2022-08-18T14:03:32;3.15;;;1.67;;
28086;SDS011;15392;48.912;8.380;2022-08-18T14:05:59;2.80;;;1.55;;
28086;SDS011;15392;48.912;8.380;2022-08-18T14:08:29;1.30;;;1.30;;
28086;SDS011;15392;48.912;8.380;2022-08-18T14:10:57;1.50;;;1.50;;
28086;SDS011;15392;48.912;8.380;2022-08-18T14:13:26;1.80;;;1.80;;
28086;SDS011;15392;48.912;8.380;2022-08-18T14:15:54;1.60;;;1.60;;
28086;SDS011;15392;48.912;8.380;2022-08-18T14:18:25;1.48;;;1.48;;
28086;SDS011;15392;48.912;8.380;2022-08-18T14:20:53;1.70;;;1.60;;
28086;SDS011;15392;48.912;8.380;2022-08-18T14:23:38;1.52;;;1.42;;
28086;SDS011;15392;48.912;8.380;2022-08-18T14:26:23;1.50;;;1.50;;
28086;SDS011;15392;48.912;8.380;2022-08-18T14:29:08;1.58;;;1.58;;
28086;SDS011;15392;48.912;8.380;2022-08-18T14:31:34;1.60;;;1.50;;
28086;SDS011;15392;48.912;8.380;2022-08-18T14:34:00;1.52;;;1.52;;
28086;SDS011;15392;48.912;8.380;2022-08-18T14:36:26;1.90;;;1.85;;
28086;SDS011;15392;48.912;8.380;2022-08-18T14:38:52;1.48;;;1.48;;
28086;SDS011;15392;48.912;8.380;2022-08-18T14:41:18;1.90;;;1.80;;
28086;SDS011;15392;48.912;8.380;2022-08-18T14:43:44;1.50;;;1.50;;
28086;SDS011;15392;48.912;8.380;2022-08-18T14:46:10;1.67;;;1.50;;
28086;SDS011;15392;48.912;8.380;2022-08-18T14:48:38;1.60;;;1.60;;
28086;SDS011;15392;48.912;8.380;2022-08-18T14:51:04;1.55;;;1.50;;
28086;SDS011;15392;48.912;8.380;2022-08-18T14:53:31;2.33;;;1.80;;
28086;SDS011;15392;48.912;8.380;2022-08-18T14:55:58;1.70;;;1.65;;
28086;SDS011;15392;48.912;8.380;2022-08-18T14:58:26;1.52;;;1.52;;
28086;SDS011;15392;48.912;8.380;2022-08-18T15:00:55;1.70;;;1.60;;
28086;SDS011;15392;48.912;8.380;2022-08-18T15:03:27;1.70;;;1.70;;
28086;SDS011;15392;48.912;8.380;2022-08-18T15:05:55;1.60;;;1.50;;
28086;SDS011;15392;48.912;8.380;2022-08-18T15:08:21;1.52;;;1.52;;
28086;SDS011;15392;48.912;8.380;2022-08-18T15:10:48;1.70;;;1.70;;
28086;SDS011;15392;48.912;8.380;2022-08-18T15:13:14;1.35;;;1.35;;
28086;SDS011;15392;48.912;8.380;2022-08-18T15:15:40;1.58;;;1.58;;
28086;SDS011;15392;48.912;8.380;2022-08-18T15:18:08;1.77;;;1.77;;
28086;SDS011;15392;48.912;8.380;2022-08-18T15:20:34;1.42;;;1.42;;
28086;SDS011;15392;48.912;8.380;2022-08-18T15:23:22;1.40;;;1.40;;
28086;SDS011;15392;48.912;8.380;2022-08-18T15:26:16;1.70;;;1.65;;
28086;SDS011;15392;48.912;8.380;2022-08-18T15:28:46;1.58;;;1.48;;
28086;SDS011;15392;48.912;8.380;2022-08-18T15:31:12;1.52;;;1.52;;
28086;SDS011;15392;48.912;8.380;2022-08-18T15:33:38;1.60;;;1.60;;
28086;SDS011;15392;48.912;8.380;2022-08-18T15:36:04;1.80;;;1.70;;
28086;SDS011;15392;48.912;8.380;2022-08-18T15:38:30;1.70;;;1.60;;
28086;SDS011;15392;48.912;8.380;2022-08-18T15:40:57;1.58;;;1.58;;
28086;SDS011;15392;48.912;8.380;2022-08-18T15:43:28;1.63;;;1.63;;
28086;SDS011;15392;48.912;8.380;2022-08-18T15:45:56;1.90;;;1.80;;
28086;SDS011;15392;48.912;8.380;2022-08-18T15:48:24;1.50;;;1.50;;
28086;SDS011;15392;48.912;8.380;2022-08-18T15:50:52;1.48;;;1.48;;
28086;SDS011;15392;48.912;8.380;2022-08-18T15:53:20;1.75;;;1.65;;
28086;SDS011;15392;48.912;8.380;2022-08-18T15:55:49;1.75;;;1.70;;
28086;SDS011;15392;48.912;8.380;2022-08-18T15:58:15;1.85;;;1.60;;
28086;SDS011;15392;48.912;8.380;2022-08-18T16:00:45;1.52;;;1.52;;
28086;SDS011;15392;48.912;8.380;2022-08-18T16:05:44;1.13;;;1.13;;
28086;SDS011;15392;48.912;8.380;2022-08-18T16:08:15;1.40;;;1.40;;
28086;SDS011;15392;48.912;8.380;2022-08-18T16:10:44;1.50;;;1.50;;
28086;SDS011;15392;48.912;8.380;2022-08-18T16:13:10;1.60;;;1.50;;
28086;SDS011;15392;48.912;8.380;2022-08-18T16:15:39;1.30;;;1.30;;
28086;SDS011;15392;48.912;8.380;2022-08-18T16:18:10;1.27;;;1.27;;
28086;SDS011;15392;48.912;8.380;2022-08-18T16:20:37;2.90;;;1.50;;
28086;SDS011;15392;48.912;8.380;2022-08-18T16:23:03;1.15;;;1.15;;
28086;SDS011;15392;48.912;8.380;2022-08-18T16:25:30;1.25;;;1.25;;
28086;SDS011;15392;48.912;8.380;2022-08-18T16:27:57;1.50;;;1.50;;
28086;SDS011;15392;48.912;8.380;2022-08-18T16:30:24;1.60;;;1.50;;
28086;SDS011;15392;48.912;8.380;2022-08-18T16:32:52;1.42;;;1.42;;
28086;SDS011;15392;48.912;8.380;2022-08-18T16:35:18;1.48;;;1.45;;
28086;SDS011;15392;48.912;8.380;2022-08-18T16:37:46;1.27;;;1.27;;
28086;SDS011;15392;48.912;8.380;2022-08-18T16:40:13;1.60;;;1.60;;
28086;SDS011;15392;48.912;8.380;2022-08-18T16:42:41;1.40;;;1.40;;
28086;SDS011;15392;48.912;8.380;2022-08-18T16:45:08;1.58;;;1.58;;
28086;SDS011;15392;48.912;8.380;2022-08-18T16:47:35;1.73;;;1.63;;
28086;SDS011;15392;48.912;8.380;2022-08-18T16:50:06;1.77;;;1.70;;
28086;SDS011;15392;48.912;8.380;2022-08-18T16:52:34;1.70;;;1.70;;
28086;SDS011;15392;48.912;8.380;2022-08-18T16:55:00;1.63;;;1.60;;
28086;SDS011;15392;48.912;8.380;2022-08-18T16:57:27;2.03;;;1.92;;
28086;SDS011;15392;48.912;8.380;2022-08-18T17:00:11;1.73;;;1.73;;
28086;SDS011;15392;48.912;8.380;2022-08-18T17:03:01;1.80;;;1.70;;
28086;SDS011;15392;48.912;8.380;2022-08-18T17:05:47;1.55;;;1.55;;
28086;SDS011;15392;48.912;8.380;2022-08-18T17:08:13;1.48;;;1.48;;
28086;SDS011;15392;48.912;8.380;2022-08-18T17:10:40;1.42;;;1.42;;
28086;SDS011;15392;48.912;8.380;2022-08-18T17:13:07;1.52;;;1.42;;
28086;SDS011;15392;48.912;8.380;2022-08-18T17:15:32;1.60;;;1.50;;
28086;SDS011;15392;48.912;8.380;2022-08-18T17:17:58;1.50;;;1.50;;
28086;SDS011;15392;48.912;8.380;2022-08-18T17:20:25;1.48;;;1.48;;
28086;SDS011;15392;48.912;8.380;2022-08-18T17:22:51;1.50;;;1.40;;
28086;SDS011;15392;48.912;8.380;2022-08-18T17:25:18;1.40;;;1.40;;
28086;SDS011;15392;48.912;8.380;2022-08-18T17:27:48;1.38;;;1.38;;
28086;SDS011;15392;48.912;8.380;2022-08-18T17:30:15;1.42;;;1.42;;
28086;SDS011;15392;48.912;8.380;2022-08-18T17:32:52;1.17;;;1.17;;
28086;SDS011;15392;48.912;8.380;2022-08-18T17:35:29;1.55;;;1.50;;
28086;SDS011;15392;48.912;8.380;2022-08-18T17:38:06;1.37;;;1.37;;
28086;SDS011;15392;48.912;8.380;2022-08-18T17:40:42;1.30;;;1.30;;
28086;SDS011;15392;48.912;8.380;2022-08-18T17:43:18;1.23;;;1.23;;
28086;SDS011;15392;48.912;8.380;2022-08-18T17:45:51;1.40;;;1.40;;
28086;SDS011;15392;48.912;8.380;2022-08-18T17:48:22;1.08;;;1.08;;
28086;SDS011;15392;48.912;8.380;2022-08-18T17:51:01;1.17;;;1.17;;
28086;SDS011;15392;48.912;8.380;2022-08-18T17:53:58;1.40;;;1.40;;
28086;SDS011;15392;48.912;8.380;2022-08-18T17:56:46;1.20;;;1.20;;
28086;SDS011;15392;48.912;8.380;2022-08-18T17:59:26;1.40;;;1.40;;
28086;SDS011;15392;48.912;8.380;2022-08-18T18:02:13;1.10;;;1.10;;
28086;SDS011;15392;48.912;8.380;2022-08-18T18:04:52;1.30;;;1.30;;
28086;SDS011;15392;48.912;8.380;2022-08-18T18:07:27;1.20;;;1.20;;
28086;SDS011;15392;48.912;8.380;2022-08-18T18:15:56;1.52;;;1.42;;
28086;SDS011;15392;48.912;8.380;2022-08-18T18:18:37;1.20;;;1.20;;